Weather History for London / Heathrow Airport, United Kingdom

Change the Weather History Date:

Tuesday, April 2, 2013

  Actual Average Record
Temperature  
Mean Temperature 39 °F -  
Max Temperature 47 °F 56 °F - ()
Min Temperature 31 °F 41 °F - ()
Degree Days  
Heating Degree Days 26    
Moisture  
Dew Point 22 °F    
Average Humidity 53    
Maximum Humidity 81    
Minimum Humidity 19    
Precipitation  
Precipitation 0.00 in - - ()
Sea Level Pressure  
Sea Level Pressure 29.97 in    
Wind  
Wind Speed 9 mph ()    
Max Wind Speed 17 mph    
Max Gust Speed -    
Visibility 9.7 miles    
Events      
T = Trace of Precipitation, MM = Missing Value Source: Averaged Metar Reports

Daily Weather History Graph

Daily Weather History Graph

Search for Another Location

Airport:

Trip Planner

Search our weather history database for the weather conditions in past years. The results will help you decide how hot, cold, wet, or windy it might be!

Date:

Astronomy

Apr. 02, 2013 Rise Set
Actual Time 6:34 AM BST 7:36 PM BST
Civil Twilight 6:00 AM BST 8:11 PM BST
Nautical Twilight 5:19 AM BST 8:52 PM BST
Astronomical Twilight 4:35 AM BST 9:36 PM BST
Moon 1:57 AM BST (4/2) 10:40 AM BST (4/2)
Length of Visible Light 14h 10m
Length of Day
13h 02m
Waning Gibbous, 58% of the Moon is Illuminated
Apr 2
Waning Gibbous
Apr 3
Last Quarter
Apr 10
New
Apr 18
First Quarter
Apr 25
Full

Hourly Weather History & Observations

Time (BST) Temp. Windchill Dew Point Humidity Pressure Visibility Wind Dir Wind Speed Gust Speed Precip Events Conditions
12:20 AM 33.8 °F 26.4 °F 24.8 °F 70% 29.89 in - ENE 9.2 mph - N/A   Clear
12:50 AM 33 °F - 25 °F 63% 29.91 in 18 mi NE 8.1 mph - -  
12:50 AM 33.8 °F 27.0 °F 24.8 °F 70% 29.89 in - ENE 8.1 mph - N/A   Clear
1:20 AM 33.8 °F 26.4 °F 24.8 °F 70% 29.92 in 6.2 mi ENE 9.2 mph - N/A   Unknown
1:50 AM 33.8 °F 27.7 °F 24.8 °F 70% 29.92 in 6.2 mi ENE 6.9 mph - N/A   Unknown
2:20 AM 32.0 °F 26.4 °F 24.8 °F 75% 29.92 in 6.2 mi NE 5.8 mph - N/A   Unknown
2:50 AM 32.0 °F 26.4 °F 24.8 °F 75% 29.92 in - NE 5.8 mph - N/A   Clear
3:20 AM 32.0 °F 26.4 °F 24.8 °F 75% 29.92 in - ENE 5.8 mph - N/A   Clear
3:50 AM 32 °F - 26 °F 70% 29.92 in 17 mi NE 6.9 mph - -  
3:50 AM 32.0 °F 26.4 °F 24.8 °F 75% 29.92 in - NE 5.8 mph - N/A   Clear
4:20 AM 32.0 °F 25.6 °F 24.8 °F 75% 29.92 in - NE 6.9 mph - N/A   Clear
4:50 AM 32.0 °F 25.6 °F 26.6 °F 80% 29.92 in - NE 6.9 mph - N/A   Clear
5:20 AM 32.0 °F 26.4 °F 26.6 °F 80% 29.92 in - NE 5.8 mph - N/A   Clear
5:50 AM 32.0 °F 25.6 °F 26.6 °F 80% 29.92 in - NE 6.9 mph - N/A   Clear
6:20 AM 32.0 °F 25.6 °F 26.6 °F 80% 29.92 in - ENE 6.9 mph - N/A   Clear
6:50 AM 32 °F - 27 °F 75% 29.93 in 15 mi NE 8.1 mph - -  
6:50 AM 32.0 °F 24.8 °F 26.6 °F 80% 29.92 in - ENE 8.1 mph - N/A   Clear
7:20 AM 32.0 °F 24.8 °F 26.6 °F 80% 29.92 in - NE 8.1 mph - N/A   Clear
7:50 AM 33.8 °F 26.4 °F 28.4 °F 81% 29.92 in - NE 9.2 mph - N/A   Clear
8:20 AM 35.6 °F 27.5 °F 28.4 °F 75% 29.95 in 6.2 mi ENE 11.5 mph - N/A   Partly Cloudy
8:50 AM 37.4 °F 29.3 °F 28.4 °F 70% 29.95 in 6.2 mi ENE 12.7 mph - N/A   Partly Cloudy
9:20 AM 39.2 °F 30.8 °F 28.4 °F 65% 29.95 in 6.2 mi ENE 15.0 mph - N/A   Partly Cloudy
9:50 AM 40 °F - 29 °F 53% 29.96 in 16 mi NE 12.7 mph - -  
9:50 AM 39.2 °F 30.8 °F 28.4 °F 65% 29.95 in 6.2 mi ENE 15.0 mph - N/A   Partly Cloudy
10:20 AM 41.0 °F 33.1 °F 26.6 °F 57% 29.95 in 6.2 mi ENE 15.0 mph - N/A   Partly Cloudy
10:50 AM 42.8 °F 35.4 °F 23.0 °F 46% 29.95 in 6.2 mi ENE 15.0 mph - N/A   Scattered Clouds
11:20 AM 42.8 °F 35.8 °F 23.0 °F 46% 29.98 in 6.2 mi ENE 13.8 mph - N/A   Partly Cloudy
11:50 AM 44.6 °F 37.4 °F 23.0 °F 43% 29.98 in 6.2 mi ENE 16.1 mph - N/A   Partly Cloudy
12:20 PM 44.6 °F 38.1 °F 23.0 °F 43% 29.98 in 6.2 mi ENE 13.8 mph - N/A   Partly Cloudy
12:50 PM 45 °F - 22 °F 26% 29.98 in 19 mi ENE 15.0 mph - -  
12:50 PM 44.6 °F 37.2 °F 21.2 °F 39% 29.98 in 6.2 mi ENE 17.3 mph - N/A   Partly Cloudy
1:20 PM 46.4 °F 40.1 °F 21.2 °F 37% 29.98 in - ENE 15.0 mph - N/A   Clear
1:50 PM 46.4 °F 40.4 °F 19.4 °F 34% 29.98 in - NE 13.8 mph - N/A   Clear
2:20 PM 46.4 °F 40.1 °F 19.4 °F 34% 29.98 in - ENE 15.0 mph - N/A   Clear
2:50 PM 46.4 °F 40.1 °F 21.2 °F 37% 29.98 in - ENE 15.0 mph - N/A   Clear
3:20 PM 46.4 °F 39.5 °F 15.8 °F 29% 29.98 in - East 17.3 mph - N/A   Clear
3:50 PM 46 °F - 17 °F 19% 29.99 in 22 mi ENE 15.0 mph - -  
3:50 PM 46.4 °F 40.1 °F 15.8 °F 29% 29.98 in - ENE 15.0 mph - N/A   Clear
4:20 PM 46.4 °F 40.4 °F 17.6 °F 32% 29.98 in - ENE 13.8 mph - N/A   Clear
4:50 PM 46.4 °F 40.4 °F 15.8 °F 29% 29.98 in - ENE 13.8 mph - N/A   Clear
5:20 PM 44.6 °F 38.4 °F 15.8 °F 31% 29.98 in - ENE 12.7 mph - N/A   Clear
5:50 PM 44.6 °F 38.4 °F 17.6 °F 34% 29.98 in - ENE 12.7 mph - N/A   Clear
6:20 PM 44.6 °F 37.8 °F 15.8 °F 31% 30.01 in - ENE 15.0 mph - N/A   Clear
6:50 PM 43 °F - 15 °F 20% 30.02 in 22 mi NE 12.7 mph - -  
6:50 PM 42.8 °F 35.8 °F 14.0 °F 31% 30.01 in - ENE 13.8 mph - N/A   Clear
7:20 PM 41.0 °F 34.7 °F 14.0 °F 33% 30.01 in - ENE 10.4 mph - N/A   Clear
7:50 PM 41.0 °F 33.9 °F 14.0 °F 33% 30.04 in - ENE 12.7 mph - N/A   Clear
8:20 PM 39.2 °F 31.6 °F 15.8 °F 39% 30.04 in - ENE 12.7 mph - N/A   Clear
8:50 PM 39.2 °F 32.0 °F 17.6 °F 42% 30.04 in - ENE 11.5 mph - N/A   Clear
9:20 PM 39.2 °F 33.0 °F 19.4 °F 45% 30.06 in - NE 9.2 mph - N/A   Clear
9:50 PM 38 °F - 21 °F 36% 30.07 in 19 mi NE 11.5 mph - -  
9:50 PM 37.4 °F 30.8 °F 19.4 °F 48% 30.06 in - NE 9.2 mph - N/A   Clear
10:20 PM 37.4 °F 31.4 °F 21.2 °F 52% 30.06 in - NE 8.1 mph - N/A   Clear
10:50 PM 35.6 °F 28.6 °F 21.2 °F 56% 30.06 in - NE 9.2 mph - N/A   Clear
11:20 PM 35.6 °F 28.6 °F 21.2 °F 56% 30.06 in - NNE 9.2 mph - N/A   Clear
11:50 PM 35.6 °F 28.6 °F 23.0 °F 60% 30.06 in - NNE 9.2 mph - N/A   Clear